sensor_id;sensor_type;location;lat;lon;timestamp;P1;durP1;ratioP1;P2;durP2;ratioP2
15218;SDS011;15623;53.986;11.676;2023-03-23T00:00:37;3.47;;;3.27;;
15218;SDS011;15623;53.986;11.676;2023-03-23T00:05:38;4.20;;;3.80;;
15218;SDS011;15623;53.986;11.676;2023-03-23T00:10:54;4.37;;;3.50;;
15218;SDS011;15623;53.986;11.676;2023-03-23T00:13:25;4.97;;;3.40;;
15218;SDS011;15623;53.986;11.676;2023-03-23T00:16:03;6.80;;;3.40;;
15218;SDS011;15623;53.986;11.676;2023-03-23T00:18:44;3.97;;;3.20;;
15218;SDS011;15623;53.986;11.676;2023-03-23T00:21:13;3.60;;;3.07;;
15218;SDS011;15623;53.986;11.676;2023-03-23T00:26:27;5.67;;;3.20;;
15218;SDS011;15623;53.986;11.676;2023-03-23T00:28:58;3.20;;;2.90;;
15218;SDS011;15623;53.986;11.676;2023-03-23T00:31:28;3.97;;;3.17;;
15218;SDS011;15623;53.986;11.676;2023-03-23T00:34:03;4.30;;;3.50;;
15218;SDS011;15623;53.986;11.676;2023-03-23T00:36:32;4.23;;;3.33;;
15218;SDS011;15623;53.986;11.676;2023-03-23T00:39:14;3.90;;;3.17;;
15218;SDS011;15623;53.986;11.676;2023-03-23T00:41:51;7.37;;;3.37;;
15218;SDS011;15623;53.986;11.676;2023-03-23T00:44:20;4.43;;;3.00;;
15218;SDS011;15623;53.986;11.676;2023-03-23T00:46:49;5.77;;;3.23;;
15218;SDS011;15623;53.986;11.676;2023-03-23T00:49:32;4.67;;;3.20;;
15218;SDS011;15623;53.986;11.676;2023-03-23T00:54:44;5.27;;;3.70;;
15218;SDS011;15623;53.986;11.676;2023-03-23T00:57:16;5.00;;;3.37;;
15218;SDS011;15623;53.986;11.676;2023-03-23T00:59:51;4.67;;;3.50;;
15218;SDS011;15623;53.986;11.676;2023-03-23T01:02:18;3.70;;;3.40;;
15218;SDS011;15623;53.986;11.676;2023-03-23T01:04:51;3.67;;;3.30;;
15218;SDS011;15623;53.986;11.676;2023-03-23T01:07:21;10.00;;;3.70;;
15218;SDS011;15623;53.986;11.676;2023-03-23T01:09:53;5.00;;;3.20;;
15218;SDS011;15623;53.986;11.676;2023-03-23T01:12:24;6.40;;;3.23;;
15218;SDS011;15623;53.986;11.676;2023-03-23T01:17:33;6.03;;;2.97;;
15218;SDS011;15623;53.986;11.676;2023-03-23T01:20:02;4.43;;;3.60;;
15218;SDS011;15623;53.986;11.676;2023-03-23T01:22:39;4.00;;;3.40;;
15218;SDS011;15623;53.986;11.676;2023-03-23T01:25:10;4.37;;;3.40;;
15218;SDS011;15623;53.986;11.676;2023-03-23T01:27:43;4.73;;;4.00;;
15218;SDS011;15623;53.986;11.676;2023-03-23T01:32:49;4.77;;;3.63;;
15218;SDS011;15623;53.986;11.676;2023-03-23T01:35:16;4.20;;;3.90;;
15218;SDS011;15623;53.986;11.676;2023-03-23T01:37:48;6.23;;;4.17;;
15218;SDS011;15623;53.986;11.676;2023-03-23T01:40:18;4.77;;;4.10;;
15218;SDS011;15623;53.986;11.676;2023-03-23T01:42:54;4.50;;;3.97;;
15218;SDS011;15623;53.986;11.676;2023-03-23T01:45:26;4.33;;;3.93;;
15218;SDS011;15623;53.986;11.676;2023-03-23T01:48:02;5.20;;;3.97;;
15218;SDS011;15623;53.986;11.676;2023-03-23T01:53:17;4.70;;;4.30;;
15218;SDS011;15623;53.986;11.676;2023-03-23T01:55:57;8.07;;;5.00;;
15218;SDS011;15623;53.986;11.676;2023-03-23T01:58:29;5.67;;;4.80;;
15218;SDS011;15623;53.986;11.676;2023-03-23T02:00:58;6.37;;;4.83;;
15218;SDS011;15623;53.986;11.676;2023-03-23T02:03:35;5.97;;;5.33;;
15218;SDS011;15623;53.986;11.676;2023-03-23T02:06:10;8.17;;;5.57;;
15218;SDS011;15623;53.986;11.676;2023-03-23T02:08:40;6.60;;;5.17;;
15218;SDS011;15623;53.986;11.676;2023-03-23T02:11:21;5.83;;;5.20;;
15218;SDS011;15623;53.986;11.676;2023-03-23T02:13:52;5.93;;;5.33;;
15218;SDS011;15623;53.986;11.676;2023-03-23T02:16:37;8.63;;;5.90;;
15218;SDS011;15623;53.986;11.676;2023-03-23T02:19:17;6.97;;;6.20;;
15218;SDS011;15623;53.986;11.676;2023-03-23T02:21:58;7.83;;;6.93;;
15218;SDS011;15623;53.986;11.676;2023-03-23T02:33:08;9.47;;;8.10;;
15218;SDS011;15623;53.986;11.676;2023-03-23T02:35:37;12.23;;;8.37;;
15218;SDS011;15623;53.986;11.676;2023-03-23T02:38:18;9.17;;;8.23;;
15218;SDS011;15623;53.986;11.676;2023-03-23T02:41:01;8.47;;;7.67;;
15218;SDS011;15623;53.986;11.676;2023-03-23T02:43:32;9.57;;;8.57;;
15218;SDS011;15623;53.986;11.676;2023-03-23T02:46:01;10.10;;;8.63;;
15218;SDS011;15623;53.986;11.676;2023-03-23T02:48:35;12.20;;;9.10;;
15218;SDS011;15623;53.986;11.676;2023-03-23T02:51:10;10.10;;;9.10;;
15218;SDS011;15623;53.986;11.676;2023-03-23T02:53:49;10.30;;;8.57;;
15218;SDS011;15623;53.986;11.676;2023-03-23T02:56:18;10.87;;;8.90;;
15218;SDS011;15623;53.986;11.676;2023-03-23T02:58:45;10.47;;;9.47;;
15218;SDS011;15623;53.986;11.676;2023-03-23T03:03:47;10.73;;;9.63;;
15218;SDS011;15623;53.986;11.676;2023-03-23T03:06:19;10.17;;;8.90;;
15218;SDS011;15623;53.986;11.676;2023-03-23T03:08:52;12.57;;;9.73;;
15218;SDS011;15623;53.986;11.676;2023-03-23T03:11:34;13.90;;;10.30;;
15218;SDS011;15623;53.986;11.676;2023-03-23T03:14:04;12.50;;;10.53;;
15218;SDS011;15623;53.986;11.676;2023-03-23T03:16:33;15.43;;;10.80;;
15218;SDS011;15623;53.986;11.676;2023-03-23T03:19:05;13.50;;;10.50;;
15218;SDS011;15623;53.986;11.676;2023-03-23T03:21:34;13.10;;;10.50;;
15218;SDS011;15623;53.986;11.676;2023-03-23T03:24:15;15.80;;;11.03;;
15218;SDS011;15623;53.986;11.676;2023-03-23T03:26:44;13.77;;;11.03;;
15218;SDS011;15623;53.986;11.676;2023-03-23T03:29:22;14.23;;;11.33;;
15218;SDS011;15623;53.986;11.676;2023-03-23T03:31:51;12.87;;;10.83;;
15218;SDS011;15623;53.986;11.676;2023-03-23T03:34:22;17.07;;;11.83;;
15218;SDS011;15623;53.986;11.676;2023-03-23T03:37:05;16.60;;;11.63;;
15218;SDS011;15623;53.986;11.676;2023-03-23T03:39:34;13.63;;;12.23;;
15218;SDS011;15623;53.986;11.676;2023-03-23T03:42:02;15.77;;;12.13;;
15218;SDS011;15623;53.986;11.676;2023-03-23T03:44:33;13.37;;;12.07;;
15218;SDS011;15623;53.986;11.676;2023-03-23T03:49:39;13.07;;;11.47;;
15218;SDS011;15623;53.986;11.676;2023-03-23T03:52:14;15.10;;;12.50;;
15218;SDS011;15623;53.986;11.676;2023-03-23T03:54:54;12.83;;;11.53;;
15218;SDS011;15623;53.986;11.676;2023-03-23T03:57:25;16.27;;;12.30;;
15218;SDS011;15623;53.986;11.676;2023-03-23T03:59:52;14.73;;;11.57;;
15218;SDS011;15623;53.986;11.676;2023-03-23T04:02:30;14.13;;;12.67;;
15218;SDS011;15623;53.986;11.676;2023-03-23T04:05:00;13.80;;;12.40;;
15218;SDS011;15623;53.986;11.676;2023-03-23T04:10:19;14.93;;;12.87;;
15218;SDS011;15623;53.986;11.676;2023-03-23T04:12:48;16.77;;;13.03;;
15218;SDS011;15623;53.986;11.676;2023-03-23T04:15:21;15.77;;;12.23;;
15218;SDS011;15623;53.986;11.676;2023-03-23T04:17:51;13.50;;;12.13;;
15218;SDS011;15623;53.986;11.676;2023-03-23T04:25:51;16.27;;;13.43;;
15218;SDS011;15623;53.986;11.676;2023-03-23T04:28:29;16.53;;;13.53;;
15218;SDS011;15623;53.986;11.676;2023-03-23T04:31:03;14.57;;;12.23;;
15218;SDS011;15623;53.986;11.676;2023-03-23T04:33:31;14.10;;;12.60;;
15218;SDS011;15623;53.986;11.676;2023-03-23T04:36:04;14.77;;;13.23;;
15218;SDS011;15623;53.986;11.676;2023-03-23T04:38:33;15.47;;;12.30;;
15218;SDS011;15623;53.986;11.676;2023-03-23T04:41:12;14.63;;;12.23;;
15218;SDS011;15623;53.986;11.676;2023-03-23T04:44:00;15.60;;;13.00;;
15218;SDS011;15623;53.986;11.676;2023-03-23T04:46:29;12.50;;;11.37;;
15218;SDS011;15623;53.986;11.676;2023-03-23T04:49:01;12.80;;;11.60;;
15218;SDS011;15623;53.986;11.676;2023-03-23T04:51:30;12.57;;;11.57;;
15218;SDS011;15623;53.986;11.676;2023-03-23T04:56:45;13.70;;;12.37;;
15218;SDS011;15623;53.986;11.676;2023-03-23T04:59:14;12.60;;;11.37;;
15218;SDS011;15623;53.986;11.676;2023-03-23T05:01:42;12.77;;;11.47;;
15218;SDS011;15623;53.986;11.676;2023-03-23T05:04:12;12.23;;;11.13;;
15218;SDS011;15623;53.986;11.676;2023-03-23T05:06:42;12.20;;;11.03;;
15218;SDS011;15623;53.986;11.676;2023-03-23T05:09:11;12.00;;;10.80;;
15218;SDS011;15623;53.986;11.676;2023-03-23T05:11:48;13.27;;;11.00;;
15218;SDS011;15623;53.986;11.676;2023-03-23T05:16:58;14.97;;;11.97;;
15218;SDS011;15623;53.986;11.676;2023-03-23T05:19:29;12.33;;;11.13;;
15218;SDS011;15623;53.986;11.676;2023-03-23T05:24:31;13.07;;;11.80;;
15218;SDS011;15623;53.986;11.676;2023-03-23T05:27:10;12.00;;;10.80;;
15218;SDS011;15623;53.986;11.676;2023-03-23T05:29:37;12.60;;;11.60;;
15218;SDS011;15623;53.986;11.676;2023-03-23T05:32:07;12.77;;;11.63;;
15218;SDS011;15623;53.986;11.676;2023-03-23T05:34:41;13.00;;;11.87;;
15218;SDS011;15623;53.986;11.676;2023-03-23T05:39:49;12.70;;;11.67;;
15218;SDS011;15623;53.986;11.676;2023-03-23T05:42:28;13.07;;;11.90;;
15218;SDS011;15623;53.986;11.676;2023-03-23T05:44:57;13.67;;;11.90;;
15218;SDS011;15623;53.986;11.676;2023-03-23T05:47:25;13.33;;;11.13;;
15218;SDS011;15623;53.986;11.676;2023-03-23T05:49:59;13.43;;;12.30;;
15218;SDS011;15623;53.986;11.676;2023-03-23T05:52:27;12.77;;;11.67;;
15218;SDS011;15623;53.986;11.676;2023-03-23T06:00:02;12.40;;;11.20;;
15218;SDS011;15623;53.986;11.676;2023-03-23T06:02:54;14.40;;;12.23;;
15218;SDS011;15623;53.986;11.676;2023-03-23T06:05:24;12.80;;;11.80;;
15218;SDS011;15623;53.986;11.676;2023-03-23T06:07:56;13.10;;;11.90;;
15218;SDS011;15623;53.986;11.676;2023-03-23T06:10:37;13.53;;;12.13;;
15218;SDS011;15623;53.986;11.676;2023-03-23T06:13:04;12.90;;;11.90;;
15218;SDS011;15623;53.986;11.676;2023-03-23T06:15:44;13.00;;;11.93;;
15218;SDS011;15623;53.986;11.676;2023-03-23T06:18:11;13.30;;;12.20;;
15218;SDS011;15623;53.986;11.676;2023-03-23T06:20:40;13.40;;;12.30;;
15218;SDS011;15623;53.986;11.676;2023-03-23T06:25:57;13.10;;;12.07;;
15218;SDS011;15623;53.986;11.676;2023-03-23T06:28:28;12.53;;;11.43;;
15218;SDS011;15623;53.986;11.676;2023-03-23T06:31:00;13.70;;;12.17;;
15218;SDS011;15623;53.986;11.676;2023-03-23T06:36:10;13.07;;;11.80;;
15218;SDS011;15623;53.986;11.676;2023-03-23T06:38:44;12.30;;;11.23;;
15218;SDS011;15623;53.986;11.676;2023-03-23T06:41:11;12.63;;;11.33;;
15218;SDS011;15623;53.986;11.676;2023-03-23T06:43:39;12.57;;;11.47;;
15218;SDS011;15623;53.986;11.676;2023-03-23T06:46:22;11.43;;;10.53;;
15218;SDS011;15623;53.986;11.676;2023-03-23T06:49:00;11.30;;;10.00;;
15218;SDS011;15623;53.986;11.676;2023-03-23T06:51:31;11.07;;;10.17;;
15218;SDS011;15623;53.986;11.676;2023-03-23T06:54:00;11.53;;;10.40;;
15218;SDS011;15623;53.986;11.676;2023-03-23T06:56:28;13.43;;;10.47;;
15218;SDS011;15623;53.986;11.676;2023-03-23T06:58:57;10.57;;;9.67;;
15218;SDS011;15623;53.986;11.676;2023-03-23T07:01:26;11.43;;;10.23;;
15218;SDS011;15623;53.986;11.676;2023-03-23T07:06:37;10.50;;;9.47;;
15218;SDS011;15623;53.986;11.676;2023-03-23T07:09:07;10.07;;;9.17;;
15218;SDS011;15623;53.986;11.676;2023-03-23T07:11:38;10.10;;;9.30;;
15218;SDS011;15623;53.986;11.676;2023-03-23T07:14:06;10.10;;;9.20;;
15218;SDS011;15623;53.986;11.676;2023-03-23T07:16:36;9.83;;;8.83;;
15218;SDS011;15623;53.986;11.676;2023-03-23T07:19:05;8.53;;;7.67;;
15218;SDS011;15623;53.986;11.676;2023-03-23T07:21:34;9.40;;;8.50;;
15218;SDS011;15623;53.986;11.676;2023-03-23T07:24:01;9.13;;;8.23;;
15218;SDS011;15623;53.986;11.676;2023-03-23T07:26:29;9.17;;;8.37;;
15218;SDS011;15623;53.986;11.676;2023-03-23T07:28:57;9.07;;;8.37;;
15218;SDS011;15623;53.986;11.676;2023-03-23T07:31:25;9.00;;;8.10;;
15218;SDS011;15623;53.986;11.676;2023-03-23T07:36:40;7.87;;;7.10;;
15218;SDS011;15623;53.986;11.676;2023-03-23T07:39:08;8.03;;;7.00;;
15218;SDS011;15623;53.986;11.676;2023-03-23T07:41:35;7.80;;;7.10;;
15218;SDS011;15623;53.986;11.676;2023-03-23T07:44:11;8.67;;;7.10;;
15218;SDS011;15623;53.986;11.676;2023-03-23T07:46:38;7.43;;;6.83;;
15218;SDS011;15623;53.986;11.676;2023-03-23T07:49:09;8.40;;;6.50;;
15218;SDS011;15623;53.986;11.676;2023-03-23T07:51:38;6.60;;;6.10;;
15218;SDS011;15623;53.986;11.676;2023-03-23T07:54:05;6.40;;;5.80;;
15218;SDS011;15623;53.986;11.676;2023-03-23T07:56:35;5.80;;;5.30;;
15218;SDS011;15623;53.986;11.676;2023-03-23T07:59:16;5.97;;;5.38;;
15218;SDS011;15623;53.986;11.676;2023-03-23T08:01:44;5.00;;;4.60;;
15218;SDS011;15623;53.986;11.676;2023-03-23T08:04:17;6.37;;;5.20;;
15218;SDS011;15623;53.986;11.676;2023-03-23T08:06:53;5.00;;;4.60;;
15218;SDS011;15623;53.986;11.676;2023-03-23T08:09:22;5.45;;;5.00;;
15218;SDS011;15623;53.986;11.676;2023-03-23T08:11:57;4.93;;;4.53;;
15218;SDS011;15623;53.986;11.676;2023-03-23T08:14:30;5.03;;;4.53;;
15218;SDS011;15623;53.986;11.676;2023-03-23T08:19:47;4.55;;;4.15;;
15218;SDS011;15623;53.986;11.676;2023-03-23T08:22:19;5.82;;;4.20;;
15218;SDS011;15623;53.986;11.676;2023-03-23T08:24:49;4.28;;;3.88;;
15218;SDS011;15623;53.986;11.676;2023-03-23T08:27:27;4.20;;;3.90;;
15218;SDS011;15623;53.986;11.676;2023-03-23T08:29:54;4.30;;;4.00;;
15218;SDS011;15623;53.986;11.676;2023-03-23T08:32:30;4.60;;;4.10;;
15218;SDS011;15623;53.986;11.676;2023-03-23T08:35:02;4.18;;;3.88;;
15218;SDS011;15623;53.986;11.676;2023-03-23T08:37:44;4.35;;;3.97;;
15218;SDS011;15623;53.986;11.676;2023-03-23T08:40:13;4.28;;;3.88;;
15218;SDS011;15623;53.986;11.676;2023-03-23T08:42:45;4.55;;;3.78;;
15218;SDS011;15623;53.986;11.676;2023-03-23T08:45:14;4.00;;;3.70;;
15218;SDS011;15623;53.986;11.676;2023-03-23T08:47:43;4.38;;;4.00;;
15218;SDS011;15623;53.986;11.676;2023-03-23T08:50:13;4.38;;;3.70;;
15218;SDS011;15623;53.986;11.676;2023-03-23T08:52:42;3.85;;;3.53;;
15218;SDS011;15623;53.986;11.676;2023-03-23T08:55:10;3.63;;;3.17;;
15218;SDS011;15623;53.986;11.676;2023-03-23T08:57:37;3.72;;;3.42;;
15218;SDS011;15623;53.986;11.676;2023-03-23T09:00:08;6.78;;;3.33;;
15218;SDS011;15623;53.986;11.676;2023-03-23T09:02:41;3.58;;;3.28;;
15218;SDS011;15623;53.986;11.676;2023-03-23T09:05:17;3.17;;;2.97;;
15218;SDS011;15623;53.986;11.676;2023-03-23T09:10:40;4.60;;;2.90;;
15218;SDS011;15623;53.986;11.676;2023-03-23T09:13:14;2.90;;;2.70;;
15218;SDS011;15623;53.986;11.676;2023-03-23T09:15:41;5.20;;;3.10;;
15218;SDS011;15623;53.986;11.676;2023-03-23T09:18:09;3.50;;;3.20;;
15218;SDS011;15623;53.986;11.676;2023-03-23T09:20:38;3.58;;;3.25;;
15218;SDS011;15623;53.986;11.676;2023-03-23T09:25:56;4.28;;;3.70;;
15218;SDS011;15623;53.986;11.676;2023-03-23T09:28:23;3.88;;;3.65;;
15218;SDS011;15623;53.986;11.676;2023-03-23T09:30:51;4.20;;;3.80;;
15218;SDS011;15623;53.986;11.676;2023-03-23T09:33:30;4.27;;;3.77;;
15218;SDS011;15623;53.986;11.676;2023-03-23T09:38:33;3.77;;;3.43;;
15218;SDS011;15623;53.986;11.676;2023-03-23T09:41:04;4.10;;;2.50;;
15218;SDS011;15623;53.986;11.676;2023-03-23T09:46:30;2.90;;;1.70;;
15218;SDS011;15623;53.986;11.676;2023-03-23T09:51:38;3.50;;;1.80;;
15218;SDS011;15623;53.986;11.676;2023-03-23T09:56:45;3.20;;;1.67;;
15218;SDS011;15623;53.986;11.676;2023-03-23T09:59:16;3.27;;;1.80;;
15218;SDS011;15623;53.986;11.676;2023-03-23T10:01:46;4.47;;;2.20;;
15218;SDS011;15623;53.986;11.676;2023-03-23T10:06:56;2.43;;;1.70;;
15218;SDS011;15623;53.986;11.676;2023-03-23T10:09:26;2.40;;;1.73;;
15218;SDS011;15623;53.986;11.676;2023-03-23T10:12:04;2.20;;;1.70;;
15218;SDS011;15623;53.986;11.676;2023-03-23T10:14:37;1.70;;;1.60;;
15218;SDS011;15623;53.986;11.676;2023-03-23T10:19:58;2.47;;;1.53;;
15218;SDS011;15623;53.986;11.676;2023-03-23T10:22:36;2.77;;;1.20;;
15218;SDS011;15623;53.986;11.676;2023-03-23T10:25:19;2.50;;;1.30;;
15218;SDS011;15623;53.986;11.676;2023-03-23T10:27:54;2.50;;;1.40;;
15218;SDS011;15623;53.986;11.676;2023-03-23T10:30:27;3.42;;;1.40;;
15218;SDS011;15623;53.986;11.676;2023-03-23T10:32:56;2.83;;;1.73;;
15218;SDS011;15623;53.986;11.676;2023-03-23T10:35:28;1.70;;;1.08;;
15218;SDS011;15623;53.986;11.676;2023-03-23T10:37:56;1.63;;;1.10;;
15218;SDS011;15623;53.986;11.676;2023-03-23T10:40:27;1.63;;;1.40;;
15218;SDS011;15623;53.986;11.676;2023-03-23T10:43:06;2.97;;;1.40;;
15218;SDS011;15623;53.986;11.676;2023-03-23T10:45:44;2.30;;;1.63;;
15218;SDS011;15623;53.986;11.676;2023-03-23T10:48:28;2.47;;;2.20;;
15218;SDS011;15623;53.986;11.676;2023-03-23T10:53:35;2.80;;;2.22;;
15218;SDS011;15623;53.986;11.676;2023-03-23T10:58:49;2.08;;;1.85;;
15218;SDS011;15623;53.986;11.676;2023-03-23T11:01:18;1.92;;;1.58;;
15218;SDS011;15623;53.986;11.676;2023-03-23T11:03:48;1.77;;;1.67;;
15218;SDS011;15623;53.986;11.676;2023-03-23T11:06:26;2.00;;;1.90;;
15218;SDS011;15623;53.986;11.676;2023-03-23T11:08:54;2.35;;;1.75;;
15218;SDS011;15623;53.986;11.676;2023-03-23T11:11:25;2.65;;;2.08;;
15218;SDS011;15623;53.986;11.676;2023-03-23T11:16:43;2.92;;;1.90;;
15218;SDS011;15623;53.986;11.676;2023-03-23T11:19:13;2.47;;;2.10;;
15218;SDS011;15623;53.986;11.676;2023-03-23T11:21:45;2.92;;;1.92;;
15218;SDS011;15623;53.986;11.676;2023-03-23T11:24:21;3.63;;;2.03;;
15218;SDS011;15623;53.986;11.676;2023-03-23T11:26:49;2.00;;;1.80;;
15218;SDS011;15623;53.986;11.676;2023-03-23T11:29:18;4.18;;;2.22;;
15218;SDS011;15623;53.986;11.676;2023-03-23T11:32:05;3.78;;;2.00;;
15218;SDS011;15623;53.986;11.676;2023-03-23T11:34:33;3.15;;;1.88;;
15218;SDS011;15623;53.986;11.676;2023-03-23T11:37:03;4.03;;;1.95;;
15218;SDS011;15623;53.986;11.676;2023-03-23T11:39:53;5.25;;;1.77;;
15218;SDS011;15623;53.986;11.676;2023-03-23T11:45:13;3.45;;;1.70;;
15218;SDS011;15623;53.986;11.676;2023-03-23T11:47:48;3.40;;;1.65;;
15218;SDS011;15623;53.986;11.676;2023-03-23T11:50:17;5.40;;;2.10;;
15218;SDS011;15623;53.986;11.676;2023-03-23T11:52:52;2.75;;;1.90;;
15218;SDS011;15623;53.986;11.676;2023-03-23T11:55:33;4.53;;;2.20;;
15218;SDS011;15623;53.986;11.676;2023-03-23T11:58:07;4.55;;;2.10;;
15218;SDS011;15623;53.986;11.676;2023-03-23T12:00:40;5.28;;;1.92;;
15218;SDS011;15623;53.986;11.676;2023-03-23T12:03:29;3.83;;;1.73;;
15218;SDS011;15623;53.986;11.676;2023-03-23T12:08:43;2.88;;;1.85;;
15218;SDS011;15623;53.986;11.676;2023-03-23T12:11:17;5.20;;;2.10;;
15218;SDS011;15623;53.986;11.676;2023-03-23T12:13:52;3.45;;;1.77;;
15218;SDS011;15623;53.986;11.676;2023-03-23T12:16:30;3.38;;;2.03;;
15218;SDS011;15623;53.986;11.676;2023-03-23T12:21:47;5.00;;;2.17;;
15218;SDS011;15623;53.986;11.676;2023-03-23T12:24:20;4.63;;;2.13;;
15218;SDS011;15623;53.986;11.676;2023-03-23T12:26:59;6.13;;;2.53;;
15218;SDS011;15623;53.986;11.676;2023-03-23T12:29:50;4.68;;;2.22;;
15218;SDS011;15623;53.986;11.676;2023-03-23T12:32:29;4.72;;;2.15;;
15218;SDS011;15623;53.986;11.676;2023-03-23T12:35:04;4.78;;;2.03;;
15218;SDS011;15623;53.986;11.676;2023-03-23T12:37:43;4.25;;;2.58;;
15218;SDS011;15623;53.986;11.676;2023-03-23T12:40:19;5.30;;;1.90;;
15218;SDS011;15623;53.986;11.676;2023-03-23T12:42:51;5.90;;;2.42;;
15218;SDS011;15623;53.986;11.676;2023-03-23T12:45:22;4.45;;;2.08;;
15218;SDS011;15623;53.986;11.676;2023-03-23T12:47:55;6.93;;;2.17;;
15218;SDS011;15623;53.986;11.676;2023-03-23T12:50:26;5.03;;;2.20;;
15218;SDS011;15623;53.986;11.676;2023-03-23T12:53:03;6.18;;;2.10;;
15218;SDS011;15623;53.986;11.676;2023-03-23T12:55:36;7.40;;;2.17;;
15218;SDS011;15623;53.986;11.676;2023-03-23T12:58:08;3.38;;;2.08;;
15218;SDS011;15623;53.986;11.676;2023-03-23T13:00:53;5.57;;;2.25;;
15218;SDS011;15623;53.986;11.676;2023-03-23T13:03:28;5.50;;;2.20;;
15218;SDS011;15623;53.986;11.676;2023-03-23T13:06:06;7.97;;;2.45;;
15218;SDS011;15623;53.986;11.676;2023-03-23T13:08:37;7.20;;;2.42;;
15218;SDS011;15623;53.986;11.676;2023-03-23T13:11:08;6.90;;;2.17;;
15218;SDS011;15623;53.986;11.676;2023-03-23T13:13:43;4.05;;;1.88;;
15218;SDS011;15623;53.986;11.676;2023-03-23T13:16:19;6.10;;;2.50;;
15218;SDS011;15623;53.986;11.676;2023-03-23T13:21:24;8.35;;;2.55;;
15218;SDS011;15623;53.986;11.676;2023-03-23T13:24:01;5.30;;;2.40;;
15218;SDS011;15623;53.986;11.676;2023-03-23T13:26:36;4.68;;;2.40;;
15218;SDS011;15623;53.986;11.676;2023-03-23T13:29:17;6.60;;;2.30;;
15218;SDS011;15623;53.986;11.676;2023-03-23T13:31:49;9.82;;;2.65;;
15218;SDS011;15623;53.986;11.676;2023-03-23T13:34:20;6.95;;;2.60;;
15218;SDS011;15623;53.986;11.676;2023-03-23T13:36:52;5.72;;;2.45;;
15218;SDS011;15623;53.986;11.676;2023-03-23T13:39:23;10.38;;;2.88;;
15218;SDS011;15623;53.986;11.676;2023-03-23T13:47:25;6.07;;;2.58;;
15218;SDS011;15623;53.986;11.676;2023-03-23T13:49:56;6.43;;;2.40;;
15218;SDS011;15623;53.986;11.676;2023-03-23T13:52:35;8.48;;;2.45;;
15218;SDS011;15623;53.986;11.676;2023-03-23T13:57:56;5.45;;;2.42;;
15218;SDS011;15623;53.986;11.676;2023-03-23T14:00:34;4.28;;;2.08;;
15218;SDS011;15623;53.986;11.676;2023-03-23T14:03:05;7.05;;;2.30;;
15218;SDS011;15623;53.986;11.676;2023-03-23T14:05:39;9.57;;;2.42;;
15218;SDS011;15623;53.986;11.676;2023-03-23T14:08:12;6.30;;;2.45;;
15218;SDS011;15623;53.986;11.676;2023-03-23T14:10:54;5.50;;;2.25;;
15218;SDS011;15623;53.986;11.676;2023-03-23T14:13:30;6.20;;;2.65;;
15218;SDS011;15623;53.986;11.676;2023-03-23T14:15:59;6.60;;;2.63;;
15218;SDS011;15623;53.986;11.676;2023-03-23T14:18:30;6.90;;;2.80;;
15218;SDS011;15623;53.986;11.676;2023-03-23T14:21:00;9.70;;;2.67;;
15218;SDS011;15623;53.986;11.676;2023-03-23T14:23:30;10.43;;;2.72;;
15218;SDS011;15623;53.986;11.676;2023-03-23T14:26:03;8.23;;;2.47;;
15218;SDS011;15623;53.986;11.676;2023-03-23T14:28:38;5.03;;;2.40;;
15218;SDS011;15623;53.986;11.676;2023-03-23T14:31:07;7.28;;;2.65;;
15218;SDS011;15623;53.986;11.676;2023-03-23T14:33:49;8.02;;;2.42;;
15218;SDS011;15623;53.986;11.676;2023-03-23T14:36:19;7.70;;;2.90;;
15218;SDS011;15623;53.986;11.676;2023-03-23T14:39:01;9.77;;;3.03;;
15218;SDS011;15623;53.986;11.676;2023-03-23T14:41:34;7.63;;;3.10;;
15218;SDS011;15623;53.986;11.676;2023-03-23T14:44:08;11.00;;;2.97;;
15218;SDS011;15623;53.986;11.676;2023-03-23T14:46:37;8.10;;;2.78;;
15218;SDS011;15623;53.986;11.676;2023-03-23T14:49:06;4.72;;;2.63;;
15218;SDS011;15623;53.986;11.676;2023-03-23T14:51:35;7.72;;;2.88;;
15218;SDS011;15623;53.986;11.676;2023-03-23T14:54:21;7.55;;;2.95;;
15218;SDS011;15623;53.986;11.676;2023-03-23T14:56:51;4.82;;;2.40;;
15218;SDS011;15623;53.986;11.676;2023-03-23T14:59:20;10.68;;;2.83;;
15218;SDS011;15623;53.986;11.676;2023-03-23T15:01:50;7.35;;;3.08;;
15218;SDS011;15623;53.986;11.676;2023-03-23T15:04:19;5.60;;;2.50;;
15218;SDS011;15623;53.986;11.676;2023-03-23T15:06:48;5.80;;;2.60;;
15218;SDS011;15623;53.986;11.676;2023-03-23T15:09:19;5.20;;;2.22;;
15218;SDS011;15623;53.986;11.676;2023-03-23T15:11:53;7.15;;;2.50;;
15218;SDS011;15623;53.986;11.676;2023-03-23T15:14:27;6.72;;;2.97;;
15218;SDS011;15623;53.986;11.676;2023-03-23T15:16:55;8.02;;;2.67;;
15218;SDS011;15623;53.986;11.676;2023-03-23T15:19:25;7.25;;;3.17;;
15218;SDS011;15623;53.986;11.676;2023-03-23T15:21:55;5.80;;;2.63;;
15218;SDS011;15623;53.986;11.676;2023-03-23T15:24:27;5.93;;;2.67;;
15218;SDS011;15623;53.986;11.676;2023-03-23T15:27:14;7.25;;;2.70;;
15218;SDS011;15623;53.986;11.676;2023-03-23T15:29:47;9.77;;;2.90;;
15218;SDS011;15623;53.986;11.676;2023-03-23T15:32:24;9.93;;;2.92;;
15218;SDS011;15623;53.986;11.676;2023-03-23T15:35:03;5.20;;;2.47;;
15218;SDS011;15623;53.986;11.676;2023-03-23T15:37:32;6.00;;;2.53;;
15218;SDS011;15623;53.986;11.676;2023-03-23T15:40:03;5.47;;;3.08;;
15218;SDS011;15623;53.986;11.676;2023-03-23T15:42:43;7.15;;;2.70;;
15218;SDS011;15623;53.986;11.676;2023-03-23T15:45:24;7.25;;;3.03;;
15218;SDS011;15623;53.986;11.676;2023-03-23T15:47:52;4.50;;;2.57;;
15218;SDS011;15623;53.986;11.676;2023-03-23T15:50:32;4.23;;;2.90;;
15218;SDS011;15623;53.986;11.676;2023-03-23T15:53:01;4.43;;;2.50;;
15218;SDS011;15623;53.986;11.676;2023-03-23T15:55:45;7.93;;;3.30;;
15218;SDS011;15623;53.986;11.676;2023-03-23T15:58:14;4.13;;;2.97;;
15218;SDS011;15623;53.986;11.676;2023-03-23T16:00:48;5.27;;;3.03;;
15218;SDS011;15623;53.986;11.676;2023-03-23T16:03:21;3.80;;;2.00;;
15218;SDS011;15623;53.986;11.676;2023-03-23T16:05:51;3.27;;;1.93;;
15218;SDS011;15623;53.986;11.676;2023-03-23T16:08:19;2.07;;;1.47;;
15218;SDS011;15623;53.986;11.676;2023-03-23T16:10:47;4.27;;;1.77;;
15218;SDS011;15623;53.986;11.676;2023-03-23T16:13:15;1.80;;;1.40;;
15218;SDS011;15623;53.986;11.676;2023-03-23T16:15:53;2.87;;;1.53;;
15218;SDS011;15623;53.986;11.676;2023-03-23T16:18:21;3.80;;;1.23;;
15218;SDS011;15623;53.986;11.676;2023-03-23T16:20:48;3.77;;;1.37;;
15218;SDS011;15623;53.986;11.676;2023-03-23T16:23:16;1.47;;;1.10;;
15218;SDS011;15623;53.986;11.676;2023-03-23T16:25:43;2.20;;;1.20;;
15218;SDS011;15623;53.986;11.676;2023-03-23T16:30:58;3.33;;;1.20;;
15218;SDS011;15623;53.986;11.676;2023-03-23T16:33:27;2.43;;;1.23;;
15218;SDS011;15623;53.986;11.676;2023-03-23T16:36:00;2.70;;;1.37;;
15218;SDS011;15623;53.986;11.676;2023-03-23T16:38:30;2.87;;;1.20;;
15218;SDS011;15623;53.986;11.676;2023-03-23T16:40:58;3.30;;;1.57;;
15218;SDS011;15623;53.986;11.676;2023-03-23T16:43:25;2.97;;;1.60;;
15218;SDS011;15623;53.986;11.676;2023-03-23T16:46:04;2.53;;;1.23;;
15218;SDS011;15623;53.986;11.676;2023-03-23T16:48:33;3.33;;;1.60;;
15218;SDS011;15623;53.986;11.676;2023-03-23T16:51:13;2.33;;;1.50;;
15218;SDS011;15623;53.986;11.676;2023-03-23T16:53:53;2.17;;;1.40;;
15218;SDS011;15623;53.986;11.676;2023-03-23T16:56:29;3.47;;;1.70;;
15218;SDS011;15623;53.986;11.676;2023-03-23T16:59:06;4.73;;;1.80;;
15218;SDS011;15623;53.986;11.676;2023-03-23T17:01:35;2.17;;;1.30;;